Yates, Missouri
Current Conditions -  °F | °C
As of 4:35 PM on Thursday 20 Nov 2014 (Local Time) from KVER Reporting Station
Scattered Clouds Scattered Clouds  
Wind Chill: 37°   Ceiling: Unl
Heat Index: 37°   Visibility: 10mi
Dew Point: 17°   Wind: 3mph
Humidity: 45%   Direction: 10°N
Pressure: 30.21"   Gusts: NA
Location:  39.3081°N, 92.5236°W
Report Text: KVER 202235Z AUTO 01003KT 10SM SCT090 03/M08 A3021 RMK AO2 T00281082
Loading
Personal Weather Stations






























Interactive Weather Map New forecast layout! Learn more

10-Day Weather Forecast

Advertisements
Track Severe Weather on mobile